Latest Weather Observations for Gabo Island

IDN60801

Issued at 10:05 pm EDT Saturday 22 November 2014 (issued every 30 minutes, with the page automatically refreshed every 10 minutes)

About weather observations | Map of weather stations | Latest weather observations for NSW | Other Formats
Station Details ID: 084016 Name: GABO ISLAND LIGHTHOUSE Lat: -37.57 Lon: 149.92 Height: 15.2 m
Data from the previous 72 hours. | See also: Recent months at Gabo Island
Date/Time
EDT
Temp
°C
App
Temp
°C
Dew
Point
Rel
Hum
%
Delta-T
°C
Wind Press
QNH
hPa
Press
MSL
hPa
Rain
since 9 am
mm
Dir
 
Spd
km/h
Gust
km/h
Spd
kts
Gust
kts
22/10:00pm 18.5 15.5 15.8 84 1.6 NNE 26 32 14 17 1010.1 - 0.0
22/09:30pm 18.7 14.5 15.7 83 1.8 NNE 32 39 17 21 1009.9 - 0.0
22/09:00pm 18.8 13.1 15.2 79 2.1 NNE 39 48 21 26 1009.5 1009.4 0.0
22/08:30pm 18.8 14.2 15.2 79 2.1 NNE 33 43 18 23 1009.6 - 0.0
22/08:00pm 18.9 14.3 15.2 79 2.2 NNE 33 41 18 22 1009.6 - 0.0
22/07:30pm 19.1 14.7 15.2 78 2.3 NNE 32 39 17 21 1009.8 - 0.0
22/07:00pm 19.2 14.4 15.5 79 2.2 NNE 35 43 19 23 1009.7 - 0.0
22/06:30pm 19.6 14.3 15.4 77 2.5 NNE 37 43 20 23 1009.5 - 0.0
22/06:00pm 19.7 13.6 15.1 75 2.7 NNE 41 50 22 27 1009.0 1009.2 0.0
22/05:30pm 19.8 13.1 15.0 74 2.8 NNE 44 50 24 27 1009.2 - 0.0
22/05:00pm 20.0 13.1 14.5 70 3.2 NNE 44 54 24 29 1009.5 - 0.0
22/04:30pm 20.2 13.8 14.2 68 3.5 NNE 41 48 22 26 1009.9 - 0.0
22/04:00pm 20.9 14.4 13.0 60 4.5 NNE 39 44 21 24 1010.4 - 0.0
22/03:30pm 21.0 15.1 13.7 63 4.2 NE 37 44 20 24 1010.5 - 0.0
22/03:00pm 21.5 15.6 13.7 61 4.5 NE 37 43 20 23 1010.8 1010.8 0.0
22/02:30pm 21.5 15.6 13.5 60 4.6 NE 37 46 20 25 1011.0 - 0.0
22/02:00pm 21.9 16.0 14.8 64 4.2 NNE 39 50 21 27 1011.0 - 0.0
22/01:30pm 21.5 15.1 15.5 68 3.6 NE 43 50 23 27 1010.9 - 0.0
22/01:00pm 21.1 15.3 16.1 73 3.0 NE 41 50 22 27 1011.3 - 0.0
22/12:30pm 21.3 15.5 16.0 72 3.2 NNE 41 50 22 27 1011.2 - 0.0
22/12:00pm 21.3 15.0 15.6 70 3.4 NNE 43 50 23 27 1011.7 1011.9 0.0
22/11:30am 20.8 14.0 14.8 68 3.5 NNE 44 54 24 29 1011.7 - 0.0
22/11:00am 20.6 14.3 14.6 68 3.5 NNE 41 50 22 27 1012.2 - 0.0
22/10:30am 19.8 13.7 14.1 69 3.3 NNE 39 48 21 26 1012.5 - 0.0
22/10:00am 20.1 14.7 14.0 68 3.5 NE 35 43 19 23 1013.0 - 0.0
22/09:30am 19.6 13.9 12.9 65 3.8 NNE 35 44 19 24 1013.1 - 0.0
22/09:00am 19.0 13.6 12.2 64 3.8 NNE 32 41 17 22 1013.6 1013.6 0.0
22/08:30am 18.4 13.9 12.7 69 3.2 NNE 28 35 15 19 1013.9 - 0.0
22/08:00am 17.7 14.8 12.9 73 2.7 NNE 20 26 11 14 1013.9 - 0.0
22/07:30am 17.2 14.6 13.7 80 2.0 NNE 20 24 11 13 1013.7 - 0.0
22/07:00am 15.3 13.5 10.8 74 2.4 NNE 11 13 6 7 1013.7 - 0.0
22/06:30am 14.9 11.8 8.8 67 3.1 N 15 20 8 11 1013.6 - 0.0
22/06:00am 12.7 10.2 9.6 81 1.6 N 13 17 7 9 1013.6 1013.7 0.0
22/05:30am 12.9 10.0 9.6 80 1.7 N 15 17 8 9 1013.5 - 0.0
22/05:00am 11.9 9.5 10.1 89 0.9 N 13 15 7 8 1013.4 - 0.0
22/04:30am 13.3 12.8 10.8 85 1.3 NNE 4 6 2 3 1013.4 - 0.0
22/04:00am 12.3 11.0 10.0 86 1.2 NNE 7 9 4 5 1013.7 - 0.0
22/03:30am 12.0 10.7 9.8 86 1.1 N 7 9 4 5 1013.7 - 0.0
22/03:00am 13.4 13.5 10.3 81 1.6 CALM 0 0 0 0 1013.7 1013.7 0.0
22/02:30am 13.3 11.8 10.4 82 1.5 WNW 9 9 5 5 1014.2 - 0.0
22/02:00am 13.9 13.0 11.5 85 1.3 WNW 7 9 4 5 1014.4 - 0.0
22/01:30am 13.1 11.7 10.8 86 1.2 NW 9 11 5 6 1014.5 - 0.0
22/01:00am 13.6 11.9 11.1 85 1.3 WNW 11 13 6 7 1014.7 - 0.0
22/12:30am 13.5 11.7 10.8 84 1.4 W 11 13 6 7 1014.9 - 0.0
22/12:00am 14.0 12.7 11.2 83 1.5 WNW 9 11 5 6 1015.1 1015.1 0.0
 
Date/Time
EDT
Temp
°C
App
Temp
°C
Dew
Point
Rel
Hum
%
Delta-T
°C
Wind Press
QNH
hPa
Press
MSL
hPa
Rain
since 9 am
mm
Dir
 
Spd
km/h
Gust
km/h
Spd
kts
Gust
kts
21/11:30pm 14.1 12.4 11.1 82 1.6 WNW 11 13 6 7 1015.0 - 0.0
21/11:00pm 14.5 12.1 11.3 81 1.7 W 15 20 8 11 1015.1 - 0.0
21/10:30pm 14.9 11.6 10.9 77 2.1 W 19 20 10 11 1014.9 - 0.0
21/10:00pm 15.2 11.8 11.1 76 2.2 W 20 26 11 14 1014.8 - 0.0
21/09:30pm 15.5 12.1 11.2 75 2.3 W 20 26 11 14 1014.5 - 0.0
21/09:00pm 16.1 9.9 11.5 74 2.5 WSW 35 41 19 22 1014.0 1013.9 0.0
21/08:30pm 16.2 9.6 11.4 73 2.6 SW 37 44 20 24 1013.4 - 0.0
21/08:00pm 16.2 8.5 11.4 73 2.6 SW 43 50 23 27 1012.7 - 0.0
21/07:30pm 16.5 8.6 11.5 72 2.7 SW 44 52 24 28 1012.2 - 0.0
21/07:00pm 16.6 9.2 11.2 70 2.9 SW 41 48 22 26 1011.9 - 0.0
21/06:30pm 17.0 8.7 11.3 69 3.1 SW 46 52 25 28 1011.1 - 0.0
21/06:00pm 17.0 8.4 11.7 71 2.9 SW 48 54 26 29 1010.7 1010.6 0.0
21/05:30pm 17.0 8.1 11.9 72 2.8 SW 50 57 27 31 1010.2 - 0.0
21/05:00pm 17.2 8.6 11.7 70 3.0 SW 48 57 26 31 1010.0 - 0.0
21/04:30pm 17.1 7.9 12.2 73 2.7 SW 52 61 28 33 1009.5 - 0.0
21/04:00pm 17.5 8.9 12.9 74 2.6 SW 50 59 27 32 1009.4 - 0.0
21/03:30pm 17.8 10.1 13.4 75 2.5 SW 46 54 25 29 1009.3 - 0.0
21/03:00pm 17.7 10.8 14.0 79 2.1 SW 43 52 23 28 1009.4 1009.4 0.0
21/02:30pm 17.8 10.3 13.8 77 2.3 SW 46 56 25 30 1009.0 - 0.0
21/02:00pm 18.4 10.9 14.0 75 2.5 SW 46 54 25 29 1008.9 - 0.0
21/01:30pm 18.2 12.1 14.0 76 2.4 SW 39 50 21 27 1009.1 - 0.0
21/01:00pm 18.4 13.5 14.4 77 2.3 SW 33 39 18 21 1008.9 - 0.0
21/12:30pm 18.2 12.7 14.6 79 2.1 SW 37 43 20 23 1009.0 - 0.0
21/12:24pm 18.2 13.0 14.6 79 2.1 SW 35 48 19 26 1009.1 - 0.0
21/12:00pm 18.6 9.1 14.3 76 2.5 SW 57 69 31 37 1008.8 1008.6 0.0
21/11:30am 18.4 8.7 14.6 78 2.2 SW 59 69 32 37 1007.6 - 0.0
21/11:00am 19.4 12.6 14.8 75 2.7 SSW 44 52 24 28 1007.0 - 0.0
21/10:30am 19.9 12.4 15.0 73 2.9 SSW 48 56 26 30 1007.0 - 0.0
21/10:00am 20.6 15.5 14.8 69 3.4 SW 35 39 19 21 1007.0 - 0.0
21/09:30am 20.9 17.8 14.6 67 3.7 SW 24 28 13 15 1006.8 - 0.0
21/09:00am 22.8 21.4 13.3 55 5.5 SW 13 22 7 12 1006.8 1006.8 0.0
21/08:30am 23.1 22.5 14.5 58 5.1 WNW 11 15 6 8 1006.3 - 0.0
21/08:00am 21.6 21.4 14.6 64 4.1 WNW 9 13 5 7 1006.1 - 0.0
21/07:30am 20.0 18.0 13.9 68 3.5 SSW 17 26 9 14 1005.7 - 0.0
21/07:00am 20.4 20.6 14.2 67 3.6 N 6 11 3 6 1004.7 - 0.0
21/06:30am 18.6 16.2 13.9 74 2.7 N 19 22 10 12 1004.3 - 0.0
21/06:00am 18.8 15.5 13.9 73 2.8 N 24 28 13 15 1003.5 1003.5 0.0
21/05:30am 18.4 17.2 14.1 76 2.5 N 13 15 7 8 1003.7 - 0.0
21/05:00am 18.9 15.6 14.0 73 2.8 N 24 28 13 15 1003.3 - 0.0
21/04:30am 18.1 14.7 14.8 81 1.9 NNE 26 30 14 16 1003.2 - 0.0
21/04:00am 18.1 16.0 14.8 81 1.9 NNE 19 20 10 11 1004.5 - 0.0
21/03:30am 19.0 17.9 14.2 73 2.8 NNW 13 15 7 8 1006.0 - 0.0
21/03:00am 18.8 17.7 14.3 75 2.6 NW 13 17 7 9 1006.4 1006.4 0.0
21/02:30am 18.9 17.8 14.4 75 2.6 WNW 13 17 7 9 1006.8 - 0.0
21/02:00am 18.5 17.2 14.7 78 2.2 WNW 15 19 8 10 1007.0 - 0.0
21/01:30am 18.4 17.4 14.6 78 2.2 W 13 15 7 8 1006.9 - 0.0
21/01:00am 18.5 16.8 14.7 78 2.2 W 17 19 9 10 1007.6 - 0.0
21/12:30am 18.6 16.9 14.8 78 2.2 WSW 17 20 9 11 1007.9 - 0.0
21/12:00am 18.8 16.5 14.7 77 2.4 WSW 20 24 11 13 1008.1 1008.2 0.0
 
Date/Time
EDT
Temp
°C
App
Temp
°C
Dew
Point
Rel
Hum
%
Delta-T
°C
Wind Press
QNH
hPa
Press
MSL
hPa
Rain
since 9 am
mm
Dir
 
Spd
km/h
Gust
km/h
Spd
kts
Gust
kts
20/11:30pm 18.7 16.1 14.8 78 2.3 W 22 24 12 13 1008.8 - 0.0
20/11:00pm 18.9 16.6 14.6 76 2.5 W 20 24 11 13 1008.7 - 0.0
20/10:30pm 18.9 16.5 14.4 75 2.6 W 20 26 11 14 1008.6 - 0.0
20/10:00pm 19.7 15.3 14.0 69 3.3 WSW 30 32 16 17 1008.9 - 0.0
20/09:30pm 21.4 15.1 12.4 56 5.1 SSW 37 44 20 24 1008.0 - 0.0
20/09:21pm 21.4 16.9 12.6 57 5.0 SSW 28 39 15 21 1007.7 - 0.0
20/09:00pm 23.6 20.6 9.2 40 7.8 WSW 15 19 8 10 1007.3 1007.3 0.0
20/08:30pm 21.5 19.3 12.1 55 5.3 W 15 19 8 10 1007.3 - 0.0
20/08:00pm 22.9 20.5 8.7 40 7.6 N 11 15 6 8 1006.3 - 0.0
20/07:30pm 21.2 20.5 14.2 64 4.1 NNE 11 11 6 6 1006.3 - 0.0
20/07:00pm 20.8 21.2 15.4 71 3.2 NNE 7 9 4 5 1006.0 - 0.0
20/06:30pm 20.4 19.6 15.2 72 3.1 NNE 13 17 7 9 1005.5 - 0.0
20/06:00pm 20.5 18.6 15.8 74 2.8 NNE 20 22 11 12 1005.1 1005.1 0.0
20/05:30pm 20.3 17.8 16.1 77 2.5 NE 24 30 13 16 1005.0 - 0.0
20/05:00pm 20.0 17.0 16.7 81 2.0 NE 28 30 15 16 1005.1 - 0.0
20/04:30pm 20.5 17.4 16.5 78 2.4 NE 28 32 15 17 1005.2 - 0.0
20/04:00pm 20.4 17.4 16.8 80 2.2 NE 28 32 15 17 1005.3 - 0.0
20/03:30pm 19.6 17.2 16.3 81 2.0 ENE 24 28 13 15 1005.7 - 0.0
20/03:00pm 20.9 19.0 16.8 77 2.5 NE 22 26 12 14 1006.3 1006.4 0.0
20/02:30pm 21.0 18.7 16.7 76 2.6 NE 24 28 13 15 1006.5 - 0.0
20/02:00pm 20.6 17.5 15.6 73 3.0 NE 26 30 14 16 1006.7 - 0.0
20/01:30pm 22.0 20.5 16.8 72 3.2 NE 20 26 11 14 1007.2 - 0.0
20/01:00pm 21.6 19.7 16.7 73 3.0 NE 22 26 12 14 1007.2 - 0.0
20/12:30pm 22.3 21.3 16.6 70 3.5 NNE 17 20 9 11 1007.7 - 0.0
20/12:00pm 22.4 22.6 16.7 70 3.5 NNE 11 15 6 8 1008.1 1008.2 0.0
20/11:30am 20.9 20.4 15.9 73 3.0 NNE 13 15 7 8 1008.4 - 0.0
20/11:00am 20.9 20.8 15.9 73 3.0 NNE 11 15 6 8 1008.8 - 0.0
20/10:30am 21.5 21.6 15.5 68 3.6 NE 9 13 5 7 1009.1 - 0.0
20/10:00am 21.0 21.4 15.3 70 3.4 E 7 11 4 6 1009.6 - 0.0
20/09:30am 21.1 20.8 12.8 59 4.7 S 6 7 3 4 1010.1 - 0.0
20/09:00am 20.2 21.0 14.7 70 3.2 SSW 4 7 2 4 1010.5 1010.5 0.0
20/08:30am 19.4 19.9 15.0 75 2.6 SSW 6 7 3 4 1010.5 - 0.0
20/08:00am 19.1 20.4 15.2 78 2.3 ENE 2 7 1 4 1010.5 - 0.0
20/07:30am 18.1 19.6 15.6 85 1.5 ENE 2 7 1 4 1010.6 - 0.0
20/07:00am 17.0 18.0 15.3 90 1.0 NW 4 9 2 5 1010.9 - 0.0
20/06:30am 16.2 15.6 14.6 90 0.9 NNE 11 13 6 7 1010.5 - 0.0
20/06:00am 15.6 14.7 13.6 88 1.1 N 11 15 6 8 1010.5 1010.6 0.0
20/05:30am 16.2 15.7 13.9 86 1.3 NNE 9 11 5 6 1010.8 - 0.0
20/05:00am 16.8 15.1 14.7 87 1.2 NNE 17 20 9 11 1010.2 - 0.0
20/04:30am 16.7 14.5 15.0 90 1.0 N 20 24 11 13 1010.5 - 0.0
20/04:00am 16.9 15.0 15.2 90 1.0 N 19 24 10 13 1010.9 - 0.0
20/03:30am 16.8 15.3 15.3 91 0.9 N 17 20 9 11 1011.6 - 0.0
20/03:00am 17.2 15.2 15.5 90 1.0 NNE 20 24 11 13 1011.8 1011.8 0.0
20/02:30am 17.3 15.5 15.4 88 1.1 N 19 22 10 12 1012.1 - 0.0
20/02:00am 17.6 14.9 15.7 89 1.1 NNE 24 30 13 16 1012.4 - 0.0
20/01:30am 17.8 15.2 15.8 88 1.2 NNE 24 32 13 17 1012.9 - 0.0
20/01:00am 17.9 15.6 15.7 87 1.3 NNE 22 24 12 13 1013.3 - 0.0
20/12:30am 17.8 16.3 15.4 86 1.4 N 17 22 9 12 1014.0 - 0.0
20/12:00am 17.9 14.7 15.3 85 1.5 NNE 26 32 14 17 1013.9 1013.9 0.0
 
Date/Time
EDT
Temp
°C
App
Temp
°C
Dew
Point
Rel
Hum
%
Delta-T
°C
Wind Press
QNH
hPa
Press
MSL
hPa
Rain
since 9 am
mm
Dir
 
Spd
km/h
Gust
km/h
Spd
kts
Gust
kts
19/11:30pm 17.9 14.4 15.5 86 1.4 NNE 28 35 15 19 1014.3 - 0.0
19/11:00pm 17.7 14.9 15.3 86 1.4 N 24 30 13 16 1014.3 - 0.0
19/10:30pm 17.5 15.4 15.3 87 1.3 N 20 26 11 14 1014.9 - 0.0

Other Formats:

Comma delimited format used in spreadsheet applications
http://www.bom.gov.au/fwo/IDN60801/IDN60801.94933.axf

JavaScript Object Notation format (JSON) in row-major order
http://www.bom.gov.au/fwo/IDN60801/IDN60801.94933.json